Time;durP1;ratioP1;P1;durP2;ratioP2;P2;SDS_P1;SDS_P2;PMS_P1;PMS_P2;Temp;Humidity;BMP_temperature;BMP_pressure;BME280_temperature;BME280_humidity;BME280_pressure;Samples;Min_cycle;Max_cycle;Signal;HPM_P1;HPM_P2
2023/10/28 00:00:43;;;;;;;863.90;775.83;;;;;;;;;;4923064;29;20082;-92
2023/10/28 00:03:16;;;;;;;851.75;758.50;;;;;;;;;;4923217;29;20388;-93
2023/10/28 00:05:45;;;;;;;868.05;776.58;;;;;;;;;;4923485;29;20028;-93
2023/10/28 00:08:14;;;;;;;877.35;787.28;;;;;;;;;;4923315;29;20040;-92
2023/10/28 00:10:41;;;;;;;850.83;762.15;;;;;;;;;;4922367;29;20476;-92
2023/10/28 00:13:16;;;;;;;885.22;792.88;;;;;;;;;;4922470;29;20502;-92
2023/10/28 00:15:51;;;;;;;1118.32;895.78;;;;;;;;;;4898858;29;20504;-92
2023/10/28 00:18:17;;;;;;;1067.15;868.55;;;;;;;;;;4883931;29;20056;-92
2023/10/28 00:26:54;;;;;;;1004.63;860.15;;;;;;;;;;4850766;29;20033;-91
2023/10/28 00:29:26;;;;;;;865.28;773.47;;;;;;;;;;4841326;29;20104;-92
2023/10/28 00:34:59;;;;;;;858.47;768.45;;;;;;;;;;4808253;29;20072;-92
2023/10/28 00:37:31;;;;;;;846.10;760.67;;;;;;;;;;4823886;29;20048;-92
2023/10/28 00:39:58;;;;;;;789.55;709.67;;;;;;;;;;4864933;29;20394;-93
2023/10/28 00:42:28;;;;;;;989.70;835.60;;;;;;;;;;4865158;29;20156;-92
2023/10/28 00:44:57;;;;;;;892.63;801.72;;;;;;;;;;4864541;29;20128;-93
2023/10/28 00:47:26;;;;;;;866.72;776.30;;;;;;;;;;4901544;29;20036;-92
2023/10/28 00:49:58;;;;;;;828.03;743.40;;;;;;;;;;4922275;29;20122;-93
2023/10/28 00:52:37;;;;;;;845.67;758.50;;;;;;;;;;4919469;29;20043;-92
2023/10/28 00:55:03;;;;;;;981.95;858.42;;;;;;;;;;4922025;29;20059;-92
2023/10/28 00:57:34;;;;;;;859.75;772.63;;;;;;;;;;4922137;29;20047;-92
2023/10/28 01:00:06;;;;;;;973.20;862.72;;;;;;;;;;4919205;29;20031;-92
2023/10/28 01:02:45;;;;;;;840.58;753.63;;;;;;;;;;4914343;29;20040;-92
2023/10/28 01:05:15;;;;;;;1132.32;878.75;;;;;;;;;;4903101;29;20052;-91
2023/10/28 01:07:46;;;;;;;924.65;825.65;;;;;;;;;;4918344;29;20102;-94
2023/10/28 01:10:35;;;;;;;889.58;795.85;;;;;;;;;;4922568;29;20057;-92
2023/10/28 01:13:08;;;;;;;865.65;774.25;;;;;;;;;;4921876;29;20051;-92
2023/10/28 01:15:34;;;;;;;874.08;785.55;;;;;;;;;;4921495;29;20491;-92
2023/10/28 01:18:04;;;;;;;1162.53;917.10;;;;;;;;;;4921064;29;20055;-92
2023/10/28 01:20:32;;;;;;;837.17;751.75;;;;;;;;;;4922000;29;20393;-93
2023/10/28 01:26:02;;;;;;;1127.85;878.45;;;;;;;;;;4938551;29;20099;-92
2023/10/28 01:28:38;;;;;;;967.63;847.60;;;;;;;;;;4920979;29;20031;-92
2023/10/28 01:31:08;;;;;;;1089.80;871.33;;;;;;;;;;4921750;29;20052;-91
2023/10/28 01:33:52;;;;;;;843.63;755.83;;;;;;;;;;4916480;29;20039;-93
2023/10/28 01:36:18;;;;;;;819.40;736.63;;;;;;;;;;4921651;29;20023;-93
2023/10/28 01:38:47;;;;;;;838.28;753.67;;;;;;;;;;4921448;29;20126;-92
2023/10/28 01:41:16;;;;;;;837.25;751.20;;;;;;;;;;4926657;29;20028;-93
2023/10/28 01:43:46;;;;;;;1089.57;879.58;;;;;;;;;;4936196;28;20041;-92
2023/10/28 01:46:18;;;;;;;961.47;837.72;;;;;;;;;;4924848;29;20039;-92
2023/10/28 01:48:49;;;;;;;785.97;702.83;;;;;;;;;;4907343;29;20080;-93
2023/10/28 01:51:16;;;;;;;845.45;759.13;;;;;;;;;;4910685;29;20084;-92
2023/10/28 01:56:43;;;;;;;815.47;733.60;;;;;;;;;;4861181;29;20514;-92
2023/10/28 01:59:12;;;;;;;1017.47;858.47;;;;;;;;;;4846311;29;20025;-91
2023/10/28 02:01:43;;;;;;;956.58;832.67;;;;;;;;;;4845588;29;20042;-92
2023/10/28 02:04:12;;;;;;;867.05;777.60;;;;;;;;;;4846007;29;20036;-93
2023/10/28 02:06:38;;;;;;;889.35;796.05;;;;;;;;;;4845962;29;20081;-92
2023/10/28 02:09:08;;;;;;;838.75;755.08;;;;;;;;;;4845984;29;20122;-92
2023/10/28 02:11:39;;;;;;;858.72;770.08;;;;;;;;;;4845223;29;20026;-92
2023/10/28 02:14:23;;;;;;;868.80;782.05;;;;;;;;;;4883112;29;20489;-92
2023/10/28 02:16:53;;;;;;;924.92;824.83;;;;;;;;;;4922021;29;20024;-93
2023/10/28 02:19:26;;;;;;;847.08;756.47;;;;;;;;;;4927101;29;20091;-91
2023/10/28 02:21:54;;;;;;;814.28;731.15;;;;;;;;;;4918415;29;20043;-92
2023/10/28 02:24:41;;;;;;;875.58;784.70;;;;;;;;;;4916800;29;20047;-92
2023/10/28 02:27:11;;;;;;;853.40;764.75;;;;;;;;;;4899307;29;20033;-91
2023/10/28 02:29:43;;;;;;;865.95;777.42;;;;;;;;;;4902731;29;20039;-92
2023/10/28 02:32:13;;;;;;;836.30;749.30;;;;;;;;;;4901419;29;20032;-93
2023/10/28 02:34:42;;;;;;;889.17;798.10;;;;;;;;;;4916651;29;20127;-93
2023/10/28 02:37:11;;;;;;;852.63;764.75;;;;;;;;;;4903272;29;20140;-92
2023/10/28 02:39:37;;;;;;;823.90;740.30;;;;;;;;;;4891486;29;20063;-92
2023/10/28 02:42:06;;;;;;;871.60;781.80;;;;;;;;;;4883690;29;20060;-92
2023/10/28 02:44:44;;;;;;;807.50;724.28;;;;;;;;;;4882678;29;20037;-93
2023/10/28 02:47:10;;;;;;;973.25;835.63;;;;;;;;;;4882608;29;20032;-92
2023/10/28 02:49:37;;;;;;;959.25;856.15;;;;;;;;;;4900206;29;20135;-93
2023/10/28 02:52:06;;;;;;;846.97;758.72;;;;;;;;;;4901462;29;20058;-92
2023/10/28 02:54:39;;;;;;;821.30;738.50;;;;;;;;;;4899297;29;20506;-92
2023/10/28 02:57:05;;;;;;;1022.95;871.97;;;;;;;;;;4902194;29;20069;-92
2023/10/28 02:59:44;;;;;;;852.63;762.40;;;;;;;;;;4901910;29;20140;-94
2023/10/28 03:02:14;;;;;;;846.22;757.33;;;;;;;;;;4896811;29;20040;-92
2023/10/28 03:04:40;;;;;;;888.28;795.20;;;;;;;;;;4882003;29;20077;-92
2023/10/28 03:07:06;;;;;;;872.70;778.67;;;;;;;;;;4883483;29;20086;-93
2023/10/28 03:09:35;;;;;;;845.45;758.40;;;;;;;;;;4882832;29;20052;-93
2023/10/28 03:12:02;;;;;;;949.28;849.42;;;;;;;;;;4882540;29;20134;-92
2023/10/28 03:14:31;;;;;;;866.35;774.95;;;;;;;;;;4882268;29;20037;-93
2023/10/28 03:16:57;;;;;;;859.58;767.88;;;;;;;;;;4883421;29;20037;-92
2023/10/28 03:19:29;;;;;;;865.42;774.10;;;;;;;;;;4882840;29;20120;-92
2023/10/28 03:21:59;;;;;;;898.72;805.50;;;;;;;;;;4882659;29;20085;-92
2023/10/28 03:24:31;;;;;;;903.70;808.35;;;;;;;;;;4885590;29;20044;-92
2023/10/28 03:26:59;;;;;;;914.03;816.58;;;;;;;;;;4883797;29;20541;-92
2023/10/28 03:29:39;;;;;;;858.38;768.22;;;;;;;;;;4885338;29;20063;-93
2023/10/28 03:32:14;;;;;;;937.65;836.92;;;;;;;;;;4884918;29;20389;-91
2023/10/28 03:34:43;;;;;;;907.17;809.22;;;;;;;;;;4888240;29;20052;-91
2023/10/28 03:37:11;;;;;;;981.95;874.80;;;;;;;;;;4921768;29;20454;-91
2023/10/28 03:39:38;;;;;;;1019.83;908.22;;;;;;;;;;4911704;29;20043;-90
2023/10/28 03:42:14;;;;;;;893.80;799.13;;;;;;;;;;4921234;29;20040;-91
2023/10/28 03:44:44;;;;;;;1016.08;906.03;;;;;;;;;;4924149;29;20509;-91
2023/10/28 03:47:16;;;;;;;972.42;867.45;;;;;;;;;;4904852;29;20520;-91
2023/10/28 03:53:08;;;;;;;996.10;894.05;;;;;;;;;;4864754;29;20171;-92
2023/10/28 03:55:41;;;;;;;1098.55;971.20;;;;;;;;;;4865837;29;20046;-93
2023/10/28 03:58:11;;;;;;;1107.40;972.45;;;;;;;;;;4850011;29;20132;-92
2023/10/28 04:00:38;;;;;;;1027.50;917.60;;;;;;;;;;4870808;29;20105;-93
2023/10/28 04:03:10;;;;;;;1073.53;957.55;;;;;;;;;;4901490;29;20068;-92
2023/10/28 04:05:39;;;;;;;1083.43;963.00;;;;;;;;;;4904230;29;20122;-92
2023/10/28 04:08:14;;;;;;;1142.45;983.45;;;;;;;;;;4882143;29;20037;-93
2023/10/28 04:10:41;;;;;;;1244.47;999.90;;;;;;;;;;4899962;29;20052;-92
2023/10/28 04:13:18;;;;;;;1201.15;999.90;;;;;;;;;;4887287;29;20043;-92
2023/10/28 04:15:48;;;;;;;1126.95;980.03;;;;;;;;;;4885173;29;20028;-92
2023/10/28 04:18:20;;;;;;;1173.55;999.90;;;;;;;;;;4886214;29;20100;-92
2023/10/28 04:20:46;;;;;;;1170.78;999.90;;;;;;;;;;4885153;29;20554;-91
2023/10/28 04:23:12;;;;;;;1229.25;999.90;;;;;;;;;;4884480;29;20076;-91
2023/10/28 04:25:42;;;;;;;1228.65;999.90;;;;;;;;;;4884348;29;20032;-93
2023/10/28 04:28:08;;;;;;;1306.32;999.90;;;;;;;;;;4865987;29;20044;-92
2023/10/28 04:30:43;;;;;;;1247.13;999.90;;;;;;;;;;4865913;29;20025;-92
2023/10/28 04:33:12;;;;;;;1435.65;999.90;;;;;;;;;;4865308;29;20040;-92
2023/10/28 04:35:47;;;;;;;1337.07;999.90;;;;;;;;;;4865776;29;20029;-92
2023/10/28 04:38:16;;;;;;;1249.13;999.90;;;;;;;;;;4872298;29;20464;-93
2023/10/28 04:40:46;;;;;;;1274.72;999.90;;;;;;;;;;4905012;29;20082;-92
2023/10/28 04:43:15;;;;;;;1305.22;999.90;;;;;;;;;;4903955;29;20034;-92
2023/10/28 04:45:48;;;;;;;1326.10;999.90;;;;;;;;;;4907121;29;20451;-91
2023/10/28 04:48:25;;;;;;;1396.90;999.90;;;;;;;;;;4933825;29;20024;-92
2023/10/28 04:50:55;;;;;;;1327.75;999.90;;;;;;;;;;4931139;29;20128;-92
2023/10/28 04:53:24;;;;;;;1304.10;999.90;;;;;;;;;;4909497;29;20143;-92
2023/10/28 04:55:56;;;;;;;1221.63;999.90;;;;;;;;;;4884637;29;20048;-92
2023/10/28 04:58:24;;;;;;;1409.00;999.90;;;;;;;;;;4883864;29;20561;-92
2023/10/28 05:00:52;;;;;;;1346.05;999.90;;;;;;;;;;4883310;29;20112;-93
2023/10/28 05:03:21;;;;;;;1236.90;999.90;;;;;;;;;;4868563;29;20053;-92
2023/10/28 05:05:53;;;;;;;1287.13;999.90;;;;;;;;;;4865741;29;20037;-93
2023/10/28 05:08:41;;;;;;;1478.38;999.90;;;;;;;;;;4864905;29;20041;-92
2023/10/28 05:11:16;;;;;;;1462.47;999.90;;;;;;;;;;4866410;29;20490;-92
2023/10/28 05:13:48;;;;;;;1525.47;999.90;;;;;;;;;;4865636;29;20033;-92
2023/10/28 05:16:23;;;;;;;1404.97;999.90;;;;;;;;;;4865223;29;20064;-92
2023/10/28 05:18:49;;;;;;;1622.35;999.90;;;;;;;;;;4865752;29;20044;-93
2023/10/28 05:21:15;;;;;;;1564.22;999.90;;;;;;;;;;4880752;29;20033;-92
2023/10/28 05:23:44;;;;;;;1664.78;999.90;;;;;;;;;;4874170;29;20043;-92
2023/10/28 05:26:47;;;;;;;1300.22;999.90;;;;;;;;;;4903941;29;20055;-91
2023/10/28 05:29:13;;;;;;;1496.88;999.90;;;;;;;;;;4903200;29;20512;-92
2023/10/28 05:31:45;;;;;;;1418.00;999.90;;;;;;;;;;4903528;29;20084;-91
2023/10/28 05:34:19;;;;;;;1273.25;999.90;;;;;;;;;;4903343;29;20417;-92
2023/10/28 05:39:32;;;;;;;1621.70;999.90;;;;;;;;;;4920295;29;19913;-91
2023/10/28 05:42:11;;;;;;;1365.30;999.90;;;;;;;;;;4903056;29;20386;-92
2023/10/28 05:44:43;;;;;;;1256.70;999.90;;;;;;;;;;4902256;29;20396;-92
2023/10/28 05:47:13;;;;;;;1257.33;999.90;;;;;;;;;;4902821;29;20063;-91
2023/10/28 05:49:51;;;;;;;1194.32;999.90;;;;;;;;;;4903080;29;20276;-93
2023/10/28 05:52:24;;;;;;;1046.60;924.60;;;;;;;;;;4919575;29;20135;-92
2023/10/28 05:54:50;;;;;;;1056.32;930.45;;;;;;;;;;4905953;29;20039;-93
2023/10/28 05:57:31;;;;;;;1075.63;935.65;;;;;;;;;;4922473;29;20040;-92
2023/10/28 06:00:00;;;;;;;1095.03;958.60;;;;;;;;;;4939463;29;20024;-92
2023/10/28 06:02:29;;;;;;;1163.40;981.50;;;;;;;;;;4929089;29;20067;-92
2023/10/28 06:05:12;;;;;;;1013.13;877.20;;;;;;;;;;4907630;29;20036;-93
2023/10/28 06:10:30;;;;;;;1228.28;990.60;;;;;;;;;;4938701;29;20090;-92
2023/10/28 06:12:59;;;;;;;1012.90;879.10;;;;;;;;;;4921386;29;20032;-92
2023/10/28 06:15:28;;;;;;;923.90;824.90;;;;;;;;;;4914789;29;20180;-92
2023/10/28 06:17:57;;;;;;;975.95;853.13;;;;;;;;;;4902223;29;20033;-92
2023/10/28 06:20:27;;;;;;;1076.03;914.65;;;;;;;;;;4902832;29;20118;-93
2023/10/28 06:23:00;;;;;;;924.03;820.88;;;;;;;;;;4902312;29;20024;-93
2023/10/28 06:25:39;;;;;;;898.78;807.28;;;;;;;;;;4902913;29;20028;-92
2023/10/28 06:28:14;;;;;;;931.10;830.10;;;;;;;;;;4921828;29;20560;-92
2023/10/28 06:30:50;;;;;;;909.28;811.15;;;;;;;;;;4923833;29;20038;-92
2023/10/28 06:33:24;;;;;;;903.70;807.55;;;;;;;;;;4903266;29;20075;-93
2023/10/28 06:35:59;;;;;;;858.92;769.90;;;;;;;;;;4894174;29;20029;-92
2023/10/28 06:38:40;;;;;;;855.55;767.80;;;;;;;;;;4907248;29;20036;-93
2023/10/28 06:41:06;;;;;;;838.90;750.85;;;;;;;;;;4921803;29;20035;-92
2023/10/28 06:43:35;;;;;;;967.95;836.60;;;;;;;;;;4921230;29;20481;-92
2023/10/28 06:46:13;;;;;;;882.33;788.47;;;;;;;;;;4905947;29;20028;-93
2023/10/28 06:48:48;;;;;;;827.67;741.45;;;;;;;;;;4906639;29;20067;-93
2023/10/28 06:51:17;;;;;;;895.20;799.55;;;;;;;;;;4921204;29;20035;-93
2023/10/28 06:53:49;;;;;;;802.08;719.47;;;;;;;;;;4922703;29;20054;-92
2023/10/28 06:56:18;;;;;;;898.72;805.05;;;;;;;;;;4922637;29;20028;-93
2023/10/28 06:58:47;;;;;;;841.70;753.40;;;;;;;;;;4924906;29;20122;-92
2023/10/28 07:01:19;;;;;;;875.20;785.05;;;;;;;;;;4924912;29;20078;-92
2023/10/28 07:03:50;;;;;;;860.72;771.35;;;;;;;;;;4919148;29;20039;-93
2023/10/28 07:06:20;;;;;;;874.28;778.67;;;;;;;;;;4924290;29;20038;-93
2023/10/28 07:08:52;;;;;;;815.47;731.45;;;;;;;;;;4921816;29;20036;-92
2023/10/28 07:11:44;;;;;;;845.92;755.72;;;;;;;;;;4924422;29;20054;-92
2023/10/28 07:14:13;;;;;;;821.47;739.25;;;;;;;;;;4923794;29;20040;-93
2023/10/28 07:16:45;;;;;;;822.45;737.20;;;;;;;;;;4925150;29;20035;-93
2023/10/28 07:19:12;;;;;;;891.03;795.88;;;;;;;;;;4925021;29;20039;-93
2023/10/28 07:21:47;;;;;;;844.75;762.35;;;;;;;;;;4926034;29;20032;-92
2023/10/28 07:24:20;;;;;;;883.40;790.70;;;;;;;;;;4942502;29;20040;-94
2023/10/28 07:26:53;;;;;;;882.88;794.03;;;;;;;;;;4926062;29;20086;-92
2023/10/28 07:29:22;;;;;;;906.30;813.15;;;;;;;;;;4926135;29;20119;-93
2023/10/28 07:31:53;;;;;;;964.40;862.22;;;;;;;;;;4921283;29;20050;-92
2023/10/28 07:34:30;;;;;;;900.97;791.05;;;;;;;;;;4914335;29;20028;-92
2023/10/28 07:37:03;;;;;;;838.45;758.72;;;;;;;;;;4907001;29;20036;-92
2023/10/28 07:39:29;;;;;;;;;;;;;;;;;;4906803;29;20036;-92
2023/10/28 07:41:58;;;;;;;853.35;768.28;;;;;;;;;;4922183;29;19999;-93
2023/10/28 07:44:25;;;;;;;812.15;729.55;;;;;;;;;;4907613;29;20039;-92
2023/10/28 07:46:54;;;;;;;844.45;764.17;;;;;;;;;;4906991;29;20406;-92
2023/10/28 07:49:27;;;;;;;810.47;733.42;;;;;;;;;;4908376;29;20032;-91
2023/10/28 07:51:56;;;;;;;728.60;663.80;;;;;;;;;;4933078;29;20032;-91
2023/10/28 07:54:25;;;;;;;785.30;709.00;;;;;;;;;;4935323;29;20062;-92
2023/10/28 07:56:51;;;;;;;822.20;738.67;;;;;;;;;;4916861;29;20040;-92
2023/10/28 07:59:25;;;;;;;762.40;691.97;;;;;;;;;;4932806;29;20065;-92
2023/10/28 08:01:52;;;;;;;772.83;697.80;;;;;;;;;;4934310;29;20040;-92
2023/10/28 08:04:23;;;;;;;671.53;609.72;;;;;;;;;;4923619;29;20024;-93
2023/10/28 08:09:53;;;;;;;728.65;659.88;;;;;;;;;;4921996;29;20035;-92
2023/10/28 08:12:43;;;;;;;624.92;567.85;;;;;;;;;;4904782;29;20036;-93
2023/10/28 08:15:12;;;;;;;482.55;438.25;;;;;;;;;;4904535;29;20052;-93
2023/10/28 08:17:56;;;;;;;109.35;101.80;;;;;;;;;;4905185;29;20036;-93
2023/10/28 08:20:23;;;;;;;131.43;121.90;;;;;;;;;;4905684;29;20083;-92
2023/10/28 08:22:56;;;;;;;468.25;426.38;;;;;;;;;;4904897;29;20032;-93
2023/10/28 08:25:26;;;;;;;;;;;;;;;;;;4904940;29;20036;-92
2023/10/28 08:27:55;;;;;;;471.92;427.77;;;;;;;;;;4904231;29;19923;-92
2023/10/28 08:30:21;;;;;;;582.78;528.80;;;;;;;;;;4905386;29;20024;-93
2023/10/28 08:32:48;;;;;;;652.33;593.42;;;;;;;;;;4921068;29;20486;-92
2023/10/28 08:35:20;;;;;;;589.72;533.63;;;;;;;;;;4916637;29;20392;-92
2023/10/28 08:37:49;;;;;;;584.47;525.47;;;;;;;;;;4924798;29;20126;-92
2023/10/28 08:40:16;;;;;;;630.63;571.97;;;;;;;;;;4924397;29;20039;-91
2023/10/28 08:42:48;;;;;;;570.90;517.72;;;;;;;;;;4924066;29;20042;-91
2023/10/28 08:45:23;;;;;;;656.25;594.55;;;;;;;;;;4922387;29;20024;-93
2023/10/28 08:47:51;;;;;;;743.60;672.67;;;;;;;;;;4912965;29;20064;-91
2023/10/28 08:50:18;;;;;;;715.95;645.97;;;;;;;;;;4904991;29;20063;-91
2023/10/28 08:52:46;;;;;;;654.35;591.72;;;;;;;;;;4904239;29;20052;-92
2023/10/28 08:55:12;;;;;;;598.15;542.85;;;;;;;;;;4913153;29;20028;-91
2023/10/28 08:57:59;;;;;;;642.63;582.90;;;;;;;;;;4918910;29;20048;-91
2023/10/28 09:00:30;;;;;;;681.78;615.47;;;;;;;;;;4923482;29;20028;-92
2023/10/28 09:03:08;;;;;;;701.85;632.45;;;;;;;;;;4926604;29;20032;-91
2023/10/28 09:05:34;;;;;;;700.25;635.13;;;;;;;;;;4923128;29;20024;-92
2023/10/28 09:08:00;;;;;;;790.03;712.83;;;;;;;;;;4923305;29;20397;-91
2023/10/28 09:10:30;;;;;;;624.20;568.45;;;;;;;;;;4923329;29;20031;-91
2023/10/28 09:12:56;;;;;;;715.25;648.13;;;;;;;;;;4904653;29;20044;-91
2023/10/28 09:15:25;;;;;;;583.65;529.25;;;;;;;;;;4905645;29;20107;-91
2023/10/28 09:18:01;;;;;;;674.00;610.65;;;;;;;;;;4922111;29;20040;-91
2023/10/28 09:20:30;;;;;;;718.95;650.85;;;;;;;;;;4906644;29;20047;-91
2023/10/28 09:23:02;;;;;;;562.47;509.27;;;;;;;;;;4907362;29;20024;-91
2023/10/28 09:25:31;;;;;;;589.35;533.47;;;;;;;;;;4905699;29;20036;-92
2023/10/28 09:28:07;;;;;;;487.17;442.20;;;;;;;;;;4910428;29;20469;-91
2023/10/28 09:30:48;;;;;;;660.97;598.08;;;;;;;;;;4946115;29;20493;-91
2023/10/28 09:33:31;;;;;;;543.92;493.77;;;;;;;;;;4933244;29;20127;-91
2023/10/28 09:36:01;;;;;;;668.42;604.45;;;;;;;;;;4931277;29;20035;-92
2023/10/28 09:38:27;;;;;;;569.60;515.90;;;;;;;;;;4961125;23;20055;-92
2023/10/28 09:40:58;;;;;;;580.15;525.97;;;;;;;;;;4930835;29;20030;-92
2023/10/28 09:43:28;;;;;;;512.90;463.92;;;;;;;;;;4911093;29;20031;-92
2023/10/28 09:45:57;;;;;;;588.95;536.33;;;;;;;;;;4919907;29;20040;-91
2023/10/28 09:48:28;;;;;;;475.25;431.10;;;;;;;;;;4918189;29;20055;-91
2023/10/28 09:50:59;;;;;;;623.10;562.47;;;;;;;;;;4918353;29;20370;-92
2023/10/28 09:53:36;;;;;;;547.72;492.58;;;;;;;;;;4918029;29;20102;-91
2023/10/28 09:56:02;;;;;;;;;;;;;;;;;;4918581;29;20040;-92
2023/10/28 09:58:38;;;;;;;547.67;495.85;;;;;;;;;;4902605;29;19918;-91
2023/10/28 10:01:12;;;;;;;619.22;562.33;;;;;;;;;;4922078;29;20042;-91
2023/10/28 10:04:01;;;;;;;560.33;508.90;;;;;;;;;;4941196;29;20091;-91
2023/10/28 10:06:27;;;;;;;549.28;498.38;;;;;;;;;;4918251;29;20063;-92
2023/10/28 10:08:56;;;;;;;607.63;551.85;;;;;;;;;;4901639;29;20031;-91
2023/10/28 10:11:25;;;;;;;645.15;585.10;;;;;;;;;;4901881;29;20062;-91
2023/10/28 10:13:54;;;;;;;545.03;494.98;;;;;;;;;;4901740;29;20492;-91
2023/10/28 10:16:21;;;;;;;560.63;509.50;;;;;;;;;;4916200;29;20082;-91
2023/10/28 10:18:51;;;;;;;563.67;512.58;;;;;;;;;;4904411;29;20044;-91
2023/10/28 10:21:22;;;;;;;706.50;637.83;;;;;;;;;;4901493;29;20382;-92
2023/10/28 10:23:54;;;;;;;754.40;677.67;;;;;;;;;;4901764;29;20103;-92
2023/10/28 10:26:34;;;;;;;660.63;594.97;;;;;;;;;;4914775;29;20039;-92
2023/10/28 10:29:02;;;;;;;681.47;617.95;;;;;;;;;;4920288;29;20275;-91
2023/10/28 10:31:43;;;;;;;637.78;576.50;;;;;;;;;;4922068;29;20031;-91
2023/10/28 10:34:09;;;;;;;626.00;568.33;;;;;;;;;;4919553;29;20051;-92
2023/10/28 10:36:40;;;;;;;626.25;566.70;;;;;;;;;;4905128;29;20039;-92
2023/10/28 10:39:20;;;;;;;570.88;516.00;;;;;;;;;;4905899;29;20424;-91
2023/10/28 10:42:03;;;;;;;693.25;628.40;;;;;;;;;;4919419;29;20032;-92
2023/10/28 10:44:39;;;;;;;483.10;437.75;;;;;;;;;;4905142;29;20024;-92
2023/10/28 10:47:08;;;;;;;522.80;475.45;;;;;;;;;;4913542;29;20067;-92
2023/10/28 10:49:35;;;;;;;581.15;526.63;;;;;;;;;;4925897;29;20032;-91
2023/10/28 10:52:01;;;;;;;643.00;582.53;;;;;;;;;;4948500;29;20034;-91
2023/10/28 10:54:38;;;;;;;521.97;473.65;;;;;;;;;;4938563;29;20048;-91
2023/10/28 10:57:06;;;;;;;601.33;545.97;;;;;;;;;;4931159;29;20539;-92
2023/10/28 10:59:35;;;;;;;551.75;501.80;;;;;;;;;;4926655;29;20051;-91
2023/10/28 11:02:02;;;;;;;671.30;608.72;;;;;;;;;;4918179;29;20036;-92
2023/10/28 11:04:34;;;;;;;681.92;620.25;;;;;;;;;;4904835;29;20076;-93
2023/10/28 11:07:06;;;;;;;611.42;554.83;;;;;;;;;;4905188;29;20482;-92
2023/10/28 11:09:35;;;;;;;630.80;572.40;;;;;;;;;;4905186;29;20028;-92
2023/10/28 11:12:01;;;;;;;676.65;611.58;;;;;;;;;;4904793;29;20196;-92
2023/10/28 11:14:27;;;;;;;665.38;603.78;;;;;;;;;;4920237;29;20024;-92
2023/10/28 11:16:56;;;;;;;726.03;656.40;;;;;;;;;;4905350;29;20044;-92
2023/10/28 11:19:23;;;;;;;569.22;515.63;;;;;;;;;;4905855;29;20035;-92
2023/10/28 11:21:49;;;;;;;743.55;674.22;;;;;;;;;;4904961;29;20060;-92
2023/10/28 11:24:17;;;;;;;554.20;502.50;;;;;;;;;;4917816;29;20031;-91
2023/10/28 11:26:53;;;;;;;662.70;600.90;;;;;;;;;;4923784;29;20563;-91
2023/10/28 11:29:26;;;;;;;620.47;564.35;;;;;;;;;;4923957;29;20036;-92
2023/10/28 11:31:58;;;;;;;697.88;632.55;;;;;;;;;;4923857;29;20032;-91
2023/10/28 11:34:27;;;;;;;614.53;556.70;;;;;;;;;;4916734;29;20020;-92
2023/10/28 11:36:55;;;;;;;568.03;515.13;;;;;;;;;;4914697;29;20038;-91
2023/10/28 11:39:24;;;;;;;559.97;509.38;;;;;;;;;;4939103;29;20063;-92
2023/10/28 11:41:54;;;;;;;473.67;431.20;;;;;;;;;;4939240;28;20024;-92
2023/10/28 11:44:27;;;;;;;639.97;580.28;;;;;;;;;;4940756;29;20094;-92
2023/10/28 11:46:59;;;;;;;548.83;497.95;;;;;;;;;;4942439;29;20046;-91
2023/10/28 11:49:25;;;;;;;708.97;643.55;;;;;;;;;;4942575;29;20114;-92
2023/10/28 11:51:57;;;;;;;636.33;578.30;;;;;;;;;;4942479;29;20039;-92
2023/10/28 11:54:29;;;;;;;715.40;647.63;;;;;;;;;;4942100;29;20027;-92
2023/10/28 11:57:18;;;;;;;578.42;526.72;;;;;;;;;;4925603;29;20131;-92
2023/10/28 11:59:52;;;;;;;546.20;495.13;;;;;;;;;;4922921;29;20073;-92
2023/10/28 12:02:41;;;;;;;;;;;;;;;;;;;;;
2023/10/28 12:05:12;;;;;;;431.42;391.23;;;;;;;;;;4940136;29;20042;-91
2023/10/28 12:07:38;;;;;;;522.33;475.65;;;;;;;;;;4923069;29;20051;-91
2023/10/28 12:10:06;;;;;;;506.70;459.65;;;;;;;;;;4922801;29;20032;-92
2023/10/28 12:12:35;;;;;;;551.28;503.60;;;;;;;;;;4923143;29;20031;-92
2023/10/28 12:15:06;;;;;;;518.55;472.02;;;;;;;;;;4922889;29;20041;-91
2023/10/28 12:17:35;;;;;;;548.22;497.15;;;;;;;;;;4930970;29;20572;-92
2023/10/28 12:20:07;;;;;;;634.92;575.55;;;;;;;;;;4937794;29;20028;-91
2023/10/28 12:22:35;;;;;;;631.40;575.50;;;;;;;;;;4922725;29;20433;-92
2023/10/28 12:25:13;;;;;;;683.67;621.65;;;;;;;;;;4924662;29;20034;-92
2023/10/28 12:27:39;;;;;;;632.33;574.50;;;;;;;;;;4926370;29;20028;-91
2023/10/28 12:30:08;;;;;;;617.35;560.75;;;;;;;;;;4941101;29;20023;-92
2023/10/28 12:32:37;;;;;;;555.90;504.77;;;;;;;;;;4942309;29;20122;-92
2023/10/28 12:35:03;;;;;;;616.60;559.28;;;;;;;;;;4942279;29;20488;-92
2023/10/28 12:37:32;;;;;;;674.00;610.58;;;;;;;;;;4942224;29;20051;-90
2023/10/28 12:40:05;;;;;;;612.40;555.78;;;;;;;;;;4941491;29;20031;-91
2023/10/28 12:42:36;;;;;;;610.65;556.22;;;;;;;;;;4941357;29;20058;-92
2023/10/28 12:45:19;;;;;;;;;;;;;;;;;;;;;
2023/10/28 12:47:45;;;;;;;562.22;511.90;;;;;;;;;;4962921;29;20544;-92
2023/10/28 12:50:16;;;;;;;567.97;516.35;;;;;;;;;;4924632;29;20048;-92
2023/10/28 12:52:53;;;;;;;490.88;447.13;;;;;;;;;;4924048;29;20027;-91
2023/10/28 12:55:26;;;;;;;617.95;559.53;;;;;;;;;;4921890;29;20126;-92
2023/10/28 12:57:53;;;;;;;393.88;357.35;;;;;;;;;;4922092;29;20118;-92
2023/10/28 13:00:22;;;;;;;456.75;413.08;;;;;;;;;;4922410;29;20031;-92
2023/10/28 13:02:54;;;;;;;466.15;424.15;;;;;;;;;;4922319;29;20031;-91
2023/10/28 13:05:20;;;;;;;479.67;435.08;;;;;;;;;;4922394;29;20500;-91
2023/10/28 13:07:46;;;;;;;659.38;596.55;;;;;;;;;;4932917;29;20065;-91
2023/10/28 13:10:12;;;;;;;448.92;407.85;;;;;;;;;;4926914;29;20385;-91
2023/10/28 13:12:39;;;;;;;549.60;499.65;;;;;;;;;;4922335;29;20127;-91
2023/10/28 13:15:07;;;;;;;556.08;502.58;;;;;;;;;;4923731;29;20024;-90
2023/10/28 13:17:34;;;;;;;641.38;581.42;;;;;;;;;;4923687;29;20044;-92
2023/10/28 13:20:00;;;;;;;610.85;553.40;;;;;;;;;;4923186;29;20032;-91
2023/10/28 13:22:27;;;;;;;786.40;636.88;;;;;;;;;;4932536;29;20042;-91
2023/10/28 13:24:53;;;;;;;541.60;493.05;;;;;;;;;;4942165;29;20039;-92
2023/10/28 13:27:25;;;;;;;590.97;538.30;;;;;;;;;;4944959;29;20020;-92
2023/10/28 13:29:51;;;;;;;556.88;507.98;;;;;;;;;;4925813;29;20042;-92
2023/10/28 13:32:18;;;;;;;512.80;467.42;;;;;;;;;;4941346;29;20039;-92
2023/10/28 13:34:44;;;;;;;525.08;477.20;;;;;;;;;;4942066;29;20082;-92
2023/10/28 13:37:11;;;;;;;556.30;503.13;;;;;;;;;;4929940;29;20036;-91
2023/10/28 13:39:38;;;;;;;558.47;508.70;;;;;;;;;;4921851;29;20505;-92
2023/10/28 13:42:04;;;;;;;542.95;493.77;;;;;;;;;;4922040;29;20528;-91
2023/10/28 13:44:30;;;;;;;605.28;549.05;;;;;;;;;;4923079;29;20039;-92
2023/10/28 13:46:56;;;;;;;501.35;454.15;;;;;;;;;;4922382;29;20032;-92
2023/10/28 13:49:24;;;;;;;540.70;490.58;;;;;;;;;;4929397;29;20043;-91
2023/10/28 13:51:50;;;;;;;595.28;541.85;;;;;;;;;;4950789;28;20023;-93
2023/10/28 13:54:17;;;;;;;544.78;495.63;;;;;;;;;;4936159;28;20074;-91
2023/10/28 13:56:43;;;;;;;594.95;539.17;;;;;;;;;;4944344;29;20063;-91
2023/10/28 13:59:10;;;;;;;500.95;455.92;;;;;;;;;;4921253;29;20070;-91
2023/10/28 14:01:37;;;;;;;540.05;491.50;;;;;;;;;;4940655;29;20047;-91
2023/10/28 14:04:03;;;;;;;527.72;479.48;;;;;;;;;;4941420;29;20027;-91
2023/10/28 14:06:30;;;;;;;455.52;415.33;;;;;;;;;;4931295;29;20039;-91
2023/10/28 14:08:57;;;;;;;732.38;660.17;;;;;;;;;;4928165;29;20126;-92
2023/10/28 14:11:26;;;;;;;632.47;573.38;;;;;;;;;;4921736;29;20027;-92
2023/10/28 14:13:57;;;;;;;665.78;598.88;;;;;;;;;;4921419;29;20092;-92
2023/10/28 14:16:24;;;;;;;554.90;503.20;;;;;;;;;;4928352;29;20126;-92
2023/10/28 14:18:50;;;;;;;626.00;568.38;;;;;;;;;;4940554;29;20042;-91
2023/10/28 14:21:22;;;;;;;639.65;579.95;;;;;;;;;;4934578;29;20485;-91
2023/10/28 14:23:49;;;;;;;548.83;497.45;;;;;;;;;;4924805;29;20027;-91
2023/10/28 14:28:44;;;;;;;748.28;672.38;;;;;;;;;;4988919;28;20491;-91
2023/10/28 14:31:11;;;;;;;665.20;601.72;;;;;;;;;;4959701;28;20022;-91
2023/10/28 14:33:37;;;;;;;653.25;593.08;;;;;;;;;;4960428;28;20023;-92
2023/10/28 14:36:10;;;;;;;696.03;631.28;;;;;;;;;;4960172;28;20031;-92
2023/10/28 14:38:36;;;;;;;662.78;600.42;;;;;;;;;;4960476;28;20050;-92
2023/10/28 14:41:03;;;;;;;638.78;580.25;;;;;;;;;;4969940;28;20035;-91
2023/10/28 14:43:29;;;;;;;780.53;709.17;;;;;;;;;;4948300;28;20061;-92